Time;durP1;ratioP1;P1;durP2;ratioP2;P2;SDS_P1;SDS_P2;PMS_P1;PMS_P2;Temp;Humidity;BMP_temperature;BMP_pressure;BME280_temperature;BME280_humidity;BME280_pressure;Samples;Min_cycle;Max_cycle;Signal;HPM_P1;HPM_P2
2022/01/07 00:00:55;;;;;;;1.90;1.83;;;-0.90;99.90;;;;;;5099444;28;20223;-66
2022/01/07 00:03:40;;;;;;;5.33;2.13;;;-0.90;99.90;;;;;;5100735;28;20203;-62
2022/01/07 00:06:24;;;;;;;2.00;1.90;;;-0.90;99.90;;;;;;5091996;28;20247;-58
2022/01/07 00:09:09;;;;;;;1.80;1.37;;;-0.90;99.90;;;;;;5096406;28;20192;-63
2022/01/07 00:11:54;;;;;;;1.97;1.87;;;-0.80;99.90;;;;;;5100065;28;20223;-66
2022/01/07 00:14:39;;;;;;;4.70;2.00;;;-0.80;99.90;;;;;;5100925;27;20304;-65
2022/01/07 00:17:23;;;;;;;1.87;1.67;;;-0.80;99.90;;;;;;5095934;27;20335;-55
2022/01/07 00:20:09;;;;;;;27.40;9.67;;;-0.80;99.90;;;;;;5096631;28;20192;-56
2022/01/07 00:22:55;;;;;;;3.87;2.60;;;-0.40;99.90;;;;;;5102461;28;20204;-66
2022/01/07 00:25:39;;;;;;;4.37;2.27;;;-0.50;99.90;;;;;;5116272;27;20196;-57
2022/01/07 00:28:24;;;;;;;1.60;1.50;;;-0.60;99.90;;;;;;5111112;27;20226;-61
2022/01/07 00:31:08;;;;;;;1.33;1.03;;;-0.70;99.90;;;;;;5111197;27;20605;-67
2022/01/07 00:33:53;;;;;;;3.63;2.40;;;-0.70;99.90;;;;;;5111169;27;20215;-65
2022/01/07 00:36:37;;;;;;;2.87;2.20;;;-0.70;99.90;;;;;;5105744;28;20260;-64
2022/01/07 00:39:22;;;;;;;2.97;2.17;;;-0.70;99.90;;;;;;5102982;28;20194;-55
2022/01/07 00:42:07;;;;;;;3.63;2.20;;;-0.80;99.90;;;;;;5115277;27;20207;-58
2022/01/07 00:44:51;;;;;;;1.87;1.80;;;-0.80;99.90;;;;;;5115337;27;20188;-57
2022/01/07 00:47:36;;;;;;;6.40;1.90;;;-0.80;99.90;;;;;;5111387;27;20276;-53
2022/01/07 00:50:21;;;;;;;2.47;1.83;;;-0.90;99.90;;;;;;5112606;27;20275;-55
2022/01/07 00:53:05;;;;;;;2.90;2.10;;;-0.80;99.90;;;;;;5116306;27;20235;-48
2022/01/07 00:55:50;;;;;;;3.47;2.20;;;-0.80;99.90;;;;;;5110729;27;20246;-53
2022/01/07 00:58:34;;;;;;;1.60;1.50;;;-0.80;99.90;;;;;;5113043;27;20284;-61
2022/01/07 01:01:19;;;;;;;3.63;2.10;;;-0.80;99.90;;;;;;5110190;27;20275;-52
2022/01/07 01:04:04;;;;;;;2.13;1.73;;;-0.80;99.90;;;;;;5116146;27;20188;-53
2022/01/07 01:06:48;;;;;;;5.27;2.40;;;-0.90;99.90;;;;;;5116830;27;20208;-53
2022/01/07 01:09:33;;;;;;;2.33;2.00;;;-0.80;99.90;;;;;;5110214;27;20223;-57
2022/01/07 01:12:17;;;;;;;3.90;3.60;;;-0.80;99.90;;;;;;5114534;27;20188;-55
2022/01/07 01:15:04;;;;;;;7.97;2.53;;;-0.70;99.90;;;;;;5111814;27;20269;-66
2022/01/07 01:17:50;;;;;;;2.27;1.77;;;-0.80;99.90;;;;;;5114477;27;20250;-55
2022/01/07 01:20:35;;;;;;;2.90;2.03;;;-0.70;99.90;;;;;;5113112;27;20241;-56
2022/01/07 01:23:19;;;;;;;2.87;2.60;;;-0.80;99.90;;;;;;5112458;27;20212;-59
2022/01/07 01:26:04;;;;;;;4.93;3.00;;;-0.70;99.90;;;;;;5112751;27;20278;-48
2022/01/07 01:28:48;;;;;;;2.07;1.30;;;-0.70;99.90;;;;;;5113821;27;20192;-53
2022/01/07 01:31:35;;;;;;;2.77;2.53;;;-0.70;99.90;;;;;;5113455;27;20187;-52
2022/01/07 01:34:20;;;;;;;1.70;1.70;;;-0.80;99.90;;;;;;5114153;27;20322;-56
2022/01/07 01:37:05;;;;;;;4.63;2.40;;;-0.70;99.90;;;;;;5127906;27;20187;-61
2022/01/07 01:39:49;;;;;;;2.93;2.17;;;-0.70;99.90;;;;;;5124583;27;20271;-58
2022/01/07 01:42:34;;;;;;;1.63;1.53;;;-0.60;99.90;;;;;;5127817;27;20222;-57
2022/01/07 01:45:20;;;;;;;3.73;2.73;;;-0.60;99.90;;;;;;5126435;27;20352;-48
2022/01/07 01:48:04;;;;;;;2.47;2.27;;;-0.70;99.90;;;;;;5125134;27;20180;-46
2022/01/07 01:50:50;;;;;;;2.53;2.33;;;-0.60;99.90;;;;;;5127833;27;20195;-54
2022/01/07 01:53:34;;;;;;;2.23;2.13;;;-0.50;99.90;;;;;;5123035;27;20258;-55
2022/01/07 01:56:19;;;;;;;4.17;3.10;;;-0.60;99.90;;;;;;5124794;27;20206;-56
2022/01/07 01:59:04;;;;;;;2.67;2.47;;;-0.60;99.90;;;;;;5124182;27;20192;-53
2022/01/07 02:01:48;;;;;;;2.67;2.13;;;-0.60;99.90;;;;;;5122888;27;20275;-50
2022/01/07 02:04:33;;;;;;;3.43;2.30;;;-0.70;99.90;;;;;;5125105;27;20226;-55
2022/01/07 02:07:18;;;;;;;4.13;3.00;;;-0.60;99.90;;;;;;5124516;27;20252;-57
2022/01/07 02:10:08;;;;;;;4.30;3.13;;;-0.60;99.90;;;;;;5122663;27;20226;-49
2022/01/07 02:12:53;;;;;;;2.30;1.50;;;-0.70;99.90;;;;;;5124973;27;20202;-54
2022/01/07 02:15:38;;;;;;;7.37;2.87;;;-0.70;99.90;;;;;;5123301;28;20265;-48
2022/01/07 02:18:23;;;;;;;2.97;2.47;;;-0.60;99.90;;;;;;5123306;27;20222;-54
2022/01/07 02:21:07;;;;;;;1.77;1.67;;;-0.50;99.90;;;;;;5124913;28;20222;-54
2022/01/07 02:23:52;;;;;;;7.40;2.40;;;-0.60;99.90;;;;;;5114093;28;20200;-53
2022/01/07 02:26:36;;;;;;;5.17;2.20;;;-0.60;99.90;;;;;;5104388;28;20294;-49
2022/01/07 02:29:21;;;;;;;4.07;2.50;;;-0.60;99.90;;;;;;5101849;28;20620;-52
2022/01/07 02:32:06;;;;;;;2.00;1.60;;;-0.70;99.90;;;;;;5101458;28;20234;-50
2022/01/07 02:34:51;;;;;;;4.70;2.00;;;-0.60;99.90;;;;;;5104016;28;20219;-49
2022/01/07 02:37:36;;;;;;;1.70;1.43;;;-0.60;99.90;;;;;;5103378;28;20200;-51
2022/01/07 02:40:21;;;;;;;2.23;2.03;;;-0.70;99.90;;;;;;5101605;28;20204;-52
2022/01/07 02:43:05;;;;;;;2.67;2.00;;;-0.60;99.90;;;;;;5106614;28;20229;-53
2022/01/07 02:45:49;;;;;;;3.50;2.27;;;-0.60;99.90;;;;;;5106458;28;20212;-50
2022/01/07 02:48:34;;;;;;;2.00;1.90;;;-0.60;99.90;;;;;;5106287;28;20192;-50
2022/01/07 02:51:18;;;;;;;2.60;2.40;;;-0.50;99.90;;;;;;5107418;28;20235;-52
2022/01/07 02:54:04;;;;;;;2.17;1.97;;;-0.40;99.90;;;;;;5105986;28;20219;-56
2022/01/07 02:56:49;;;;;;;3.50;3.20;;;-0.40;99.90;;;;;;5107964;28;20280;-55
2022/01/07 02:59:33;;;;;;;3.00;1.90;;;-0.50;99.90;;;;;;5107516;28;20207;-55
2022/01/07 03:02:17;;;;;;;3.73;2.37;;;-0.30;99.90;;;;;;5105430;28;20200;-50
2022/01/07 03:05:02;;;;;;;4.30;2.17;;;-0.30;99.90;;;;;;5107870;28;20201;-53
2022/01/07 03:07:47;;;;;;;2.70;2.60;;;-0.30;99.90;;;;;;5106206;28;20225;-50
2022/01/07 03:10:33;;;;;;;7.73;3.67;;;-0.20;99.90;;;;;;5105627;28;20189;-56
2022/01/07 03:13:17;;;;;;;2.43;1.93;;;-0.30;99.90;;;;;;5107403;28;20195;-57
2022/01/07 03:16:02;;;;;;;3.60;2.50;;;-0.30;99.90;;;;;;5105257;28;20195;-50
2022/01/07 03:18:46;;;;;;;9.40;2.37;;;-0.30;99.90;;;;;;5106588;28;20201;-54
2022/01/07 03:21:30;;;;;;;3.87;2.43;;;-0.30;99.90;;;;;;5107320;28;20184;-52
2022/01/07 03:24:15;;;;;;;6.43;2.93;;;-0.30;99.90;;;;;;5105032;28;20196;-50
2022/01/07 03:26:59;;;;;;;3.73;1.83;;;-0.30;99.90;;;;;;5107653;28;20231;-49
2022/01/07 03:29:44;;;;;;;6.90;3.17;;;-0.30;99.90;;;;;;5106326;28;20253;-53
2022/01/07 03:32:28;;;;;;;2.37;2.17;;;-0.30;99.90;;;;;;5105126;28;20276;-53
2022/01/07 03:35:13;;;;;;;4.60;2.43;;;-0.30;99.90;;;;;;5107073;28;20300;-56
2022/01/07 03:37:57;;;;;;;2.60;2.40;;;-0.20;99.90;;;;;;5105589;28;20215;-55
2022/01/07 03:40:41;;;;;;;4.20;3.77;;;-0.20;99.90;;;;;;5105105;28;20226;-60
2022/01/07 03:43:26;;;;;;;9.47;3.23;;;-0.20;99.90;;;;;;5106657;28;20192;-52
2022/01/07 03:46:10;;;;;;;5.70;2.83;;;-0.20;99.90;;;;;;5105060;28;20207;-55
2022/01/07 03:48:54;;;;;;;4.07;3.67;;;-0.20;99.90;;;;;;5106575;28;20273;-63
2022/01/07 03:51:39;;;;;;;4.57;3.13;;;-0.30;99.90;;;;;;5106326;28;20308;-62
2022/01/07 03:54:23;;;;;;;4.27;3.87;;;-0.30;99.90;;;;;;5103314;28;20274;-60
2022/01/07 03:57:08;;;;;;;3.17;2.27;;;-0.30;99.90;;;;;;5107011;28;20254;-50
2022/01/07 03:59:52;;;;;;;4.93;2.67;;;-0.20;99.90;;;;;;5105901;28;20195;-61
2022/01/07 04:02:36;;;;;;;4.53;3.37;;;-0.20;99.90;;;;;;5104341;28;20262;-63
2022/01/07 04:05:22;;;;;;;6.00;3.87;;;-0.20;99.90;;;;;;5106566;28;20196;-55
2022/01/07 04:08:08;;;;;;;7.07;3.40;;;-0.20;99.90;;;;;;5104628;28;20192;-55
2022/01/07 04:10:53;;;;;;;4.83;4.40;;;-0.20;99.90;;;;;;5105031;28;20287;-60
2022/01/07 04:13:37;;;;;;;3.37;2.70;;;-0.10;99.90;;;;;;5105925;28;20277;-52
2022/01/07 04:16:21;;;;;;;4.43;3.17;;;-0.10;99.90;;;;;;5104713;28;20207;-56
2022/01/07 04:19:05;;;;;;;7.83;2.93;;;-0.10;99.90;;;;;;5106110;28;20838;-53
2022/01/07 04:21:49;;;;;;;8.27;3.53;;;-0.10;99.90;;;;;;5106038;28;20224;-54
2022/01/07 04:24:34;;;;;;;13.70;2.50;;;-0.10;99.90;;;;;;5104141;28;20232;-54
2022/01/07 04:27:18;;;;;;;11.70;4.30;;;-0.10;99.90;;;;;;5106528;28;20215;-55
2022/01/07 04:30:03;;;;;;;4.90;2.67;;;-0.10;99.90;;;;;;5104983;28;20199;-58
2022/01/07 04:32:48;;;;;;;5.03;3.60;;;-0.10;99.90;;;;;;5104356;28;20192;-54
2022/01/07 04:35:34;;;;;;;5.00;3.00;;;-0.10;99.90;;;;;;5105811;28;20274;-57
2022/01/07 04:38:18;;;;;;;13.30;6.20;;;-0.10;99.90;;;;;;5103876;28;20192;-61
2022/01/07 04:41:03;;;;;;;11.37;8.53;;;-0.10;99.90;;;;;;5105202;28;20262;-59
2022/01/07 04:43:48;;;;;;;2.33;2.23;;;0.00;99.90;;;;;;5105477;28;20610;-54
2022/01/07 04:46:33;;;;;;;7.37;2.37;;;0.10;99.90;;;;;;5103303;28;20227;-53
2022/01/07 04:49:17;;;;;;;3.60;2.73;;;0.10;99.90;;;;;;5106107;28;20231;-52
2022/01/07 04:52:03;;;;;;;8.00;4.13;;;0.00;99.90;;;;;;5104608;28;20224;-60
2022/01/07 04:54:47;;;;;;;5.97;4.17;;;0.00;99.90;;;;;;5103235;28;20413;-54
2022/01/07 04:57:31;;;;;;;5.43;2.93;;;-0.10;99.90;;;;;;5105803;28;20216;-52
2022/01/07 05:00:18;;;;;;;10.63;3.17;;;-0.10;99.90;;;;;;5104044;28;20197;-53
2022/01/07 05:03:03;;;;;;;10.80;6.77;;;0.00;99.90;;;;;;5103716;28;20220;-50
2022/01/07 05:05:57;;;;;;;7.33;4.00;;;0.00;99.90;;;;;;5104859;28;20227;-57
2022/01/07 05:08:42;;;;;;;3.17;2.87;;;0.20;99.90;;;;;;5104049;28;20210;-62
2022/01/07 05:11:26;;;;;;;11.27;3.83;;;0.50;99.90;;;;;;5104141;28;20188;-52
2022/01/07 05:14:10;;;;;;;10.03;4.40;;;0.60;99.90;;;;;;5104371;28;20232;-51
2022/01/07 05:16:56;;;;;;;3.50;3.20;;;0.60;99.90;;;;;;5102979;28;20271;-49
2022/01/07 05:19:40;;;;;;;5.73;3.53;;;0.70;99.90;;;;;;5104898;28;20284;-57
2022/01/07 05:22:24;;;;;;;10.77;3.37;;;0.60;99.90;;;;;;5104602;28;20433;-61
2022/01/07 05:25:11;;;;;;;7.87;3.63;;;0.90;99.90;;;;;;5103331;28;20192;-63
2022/01/07 05:27:56;;;;;;;6.90;3.60;;;1.00;99.90;;;;;;5105645;28;20199;-53
2022/01/07 05:30:40;;;;;;;7.30;3.33;;;1.00;99.90;;;;;;5103485;28;20334;-55
2022/01/07 05:33:25;;;;;;;8.37;4.47;;;1.10;99.90;;;;;;5103300;28;20215;-55
2022/01/07 05:36:10;;;;;;;4.30;3.20;;;1.00;99.90;;;;;;5104388;28;20211;-55
2022/01/07 05:38:54;;;;;;;5.67;3.83;;;0.80;99.90;;;;;;5102876;28;20188;-63
2022/01/07 05:41:38;;;;;;;4.60;3.30;;;0.70;99.90;;;;;;5104154;28;20204;-56
2022/01/07 05:44:23;;;;;;;6.03;4.30;;;0.50;99.90;;;;;;5104741;28;20262;-63
2022/01/07 05:47:07;;;;;;;2.60;2.43;;;0.40;99.90;;;;;;5102435;28;20268;-49
2022/01/07 05:49:51;;;;;;;4.50;3.13;;;0.20;99.90;;;;;;5104626;28;20284;-60
2022/01/07 05:52:36;;;;;;;4.70;4.20;;;0.20;99.90;;;;;;5103432;28;20232;-54
2022/01/07 05:55:21;;;;;;;2.03;1.87;;;0.20;99.90;;;;;;5102042;28;20277;-55
2022/01/07 05:58:05;;;;;;;4.77;3.67;;;0.00;99.90;;;;;;5104674;28;20196;-48
2022/01/07 06:00:50;;;;;;;5.67;2.93;;;0.00;99.90;;;;;;5102847;28;20253;-49
2022/01/07 06:03:35;;;;;;;6.67;3.33;;;0.00;99.90;;;;;;5102709;28;20195;-52
2022/01/07 06:06:19;;;;;;;3.43;3.17;;;-0.10;99.90;;;;;;5104121;28;20271;-53
2022/01/07 06:09:04;;;;;;;3.00;2.83;;;-0.10;99.90;;;;;;5102235;28;20246;-49
2022/01/07 06:11:48;;;;;;;2.97;2.70;;;-0.10;99.90;;;;;;5103701;28;20324;-53
2022/01/07 06:14:32;;;;;;;3.47;2.40;;;-0.20;99.90;;;;;;5103567;28;20274;-54
2022/01/07 06:17:18;;;;;;;3.27;3.03;;;-0.20;99.90;;;;;;5101732;28;20196;-57
2022/01/07 06:20:04;;;;;;;4.80;2.67;;;-0.20;99.90;;;;;;5107627;28;20189;-55
2022/01/07 06:22:48;;;;;;;2.13;1.93;;;-0.10;99.90;;;;;;5107640;28;20200;-58
2022/01/07 06:25:32;;;;;;;2.43;2.17;;;-0.20;99.90;;;;;;5101133;28;20220;-57
2022/01/07 06:28:17;;;;;;;4.60;3.47;;;-0.20;99.90;;;;;;5103248;28;20202;-47
2022/01/07 06:31:02;;;;;;;5.90;3.20;;;-0.30;99.90;;;;;;5105066;28;20222;-52
2022/01/07 06:33:46;;;;;;;2.80;2.50;;;-0.30;99.90;;;;;;5091523;28;20224;-58
2022/01/07 06:36:31;;;;;;;3.40;2.33;;;-0.30;99.90;;;;;;5095796;28;20223;-59
2022/01/07 06:39:18;;;;;;;3.80;3.10;;;-0.30;99.90;;;;;;5093315;28;20241;-64
2022/01/07 06:42:03;;;;;;;5.90;3.27;;;-0.20;99.90;;;;;;5092613;28;20189;-63
2022/01/07 06:44:47;;;;;;;7.10;3.47;;;-0.20;99.90;;;;;;5092853;28;20193;-52
2022/01/07 06:47:32;;;;;;;7.83;4.13;;;-0.30;99.90;;;;;;5094676;28;20186;-52
2022/01/07 06:50:16;;;;;;;5.43;3.87;;;-0.20;99.90;;;;;;5110757;28;20212;-63
2022/01/07 06:53:01;;;;;;;6.03;3.80;;;-0.20;99.90;;;;;;5112092;28;20250;-64
2022/01/07 06:55:45;;;;;;;5.37;2.73;;;-0.30;99.90;;;;;;5107885;27;20327;-59
2022/01/07 06:58:30;;;;;;;5.97;3.57;;;-0.30;99.90;;;;;;5109186;28;20188;-53
2022/01/07 07:01:15;;;;;;;6.00;4.43;;;-0.40;99.90;;;;;;5109721;28;20235;-64
2022/01/07 07:03:59;;;;;;;3.33;2.73;;;-0.40;99.90;;;;;;5111708;28;20211;-60
2022/01/07 07:06:44;;;;;;;4.17;3.23;;;-0.30;99.90;;;;;;5102485;27;20180;-64
2022/01/07 07:09:29;;;;;;;5.10;3.87;;;-0.30;99.90;;;;;;5109482;27;20265;-55
2022/01/07 07:12:13;;;;;;;2.00;1.83;;;-0.40;99.90;;;;;;5109508;28;20210;-59
2022/01/07 07:14:58;;;;;;;3.90;2.80;;;-0.30;99.90;;;;;;5111590;28;20269;-55
2022/01/07 07:17:44;;;;;;;2.87;2.67;;;-0.30;99.90;;;;;;5108244;28;20188;-58
2022/01/07 07:20:29;;;;;;;4.03;3.33;;;-0.20;99.90;;;;;;5109604;28;20195;-58
2022/01/07 07:23:13;;;;;;;4.40;3.83;;;-0.30;99.90;;;;;;5108504;28;20197;-61
2022/01/07 07:25:58;;;;;;;3.63;3.33;;;-0.30;99.90;;;;;;5111019;28;20309;-62
2022/01/07 07:28:42;;;;;;;7.57;3.20;;;-0.60;99.90;;;;;;5108010;27;20196;-51
2022/01/07 07:31:27;;;;;;;2.47;1.93;;;-0.50;99.90;;;;;;5114860;27;20207;-53
2022/01/07 08:24:58;;;;;;;6.80;3.10;;;0.10;99.90;;;;;;5073182;28;20220;-58
2022/01/07 08:27:43;;;;;;;3.23;2.77;;;0.20;99.90;;;;;;5084320;28;20663;-58
2022/01/07 08:30:35;;;;;;;3.03;2.50;;;0.30;99.90;;;;;;5084835;28;20247;-57
2022/01/07 08:36:28;;;;;;;3.07;2.83;;;0.40;99.90;;;;;;5084562;28;20192;-53
2022/01/07 08:39:14;;;;;;;5.13;3.87;;;0.40;99.90;;;;;;5113603;27;20193;-52
2022/01/07 08:41:58;;;;;;;3.77;3.47;;;0.40;99.90;;;;;;5084977;28;20327;-64
2022/01/07 08:44:42;;;;;;;5.97;2.97;;;0.60;99.90;;;;;;5111023;27;20188;-60
2022/01/07 08:47:26;;;;;;;7.00;3.97;;;0.70;99.90;;;;;;5111304;27;20297;-55
2022/01/07 08:50:11;;;;;;;5.63;4.03;;;0.70;99.90;;;;;;5111811;27;20216;-56
2022/01/07 08:53:00;;;;;;;4.37;3.23;;;0.90;99.90;;;;;;5104609;27;20639;-60
2022/01/07 08:55:45;;;;;;;8.97;3.90;;;0.90;99.90;;;;;;5104281;27;20309;-55
2022/01/07 08:58:32;;;;;;;3.13;2.57;;;0.80;99.90;;;;;;5106060;27;20195;-61
2022/01/07 09:01:16;;;;;;;3.20;2.93;;;0.80;99.90;;;;;;5118554;27;20250;-61
2022/01/07 09:04:01;;;;;;;4.57;3.03;;;0.70;99.90;;;;;;5126076;27;20283;-56
2022/01/07 09:06:45;;;;;;;4.00;3.23;;;0.80;99.90;;;;;;5123368;27;20239;-64
2022/01/07 09:09:30;;;;;;;3.63;3.33;;;0.90;99.90;;;;;;5120222;27;20308;-55
2022/01/07 09:12:14;;;;;;;7.47;2.87;;;1.00;99.90;;;;;;5125485;27;20286;-65
2022/01/07 09:14:59;;;;;;;4.83;3.87;;;0.70;99.90;;;;;;5118566;27;20272;-64
2022/01/07 09:17:44;;;;;;;6.70;3.67;;;0.80;99.90;;;;;;5103601;27;20199;-59
2022/01/07 09:20:28;;;;;;;8.73;3.40;;;0.90;99.90;;;;;;5132237;27;20188;-64
2022/01/07 09:23:14;;;;;;;3.00;2.63;;;0.90;99.90;;;;;;5102220;28;20196;-56
2022/01/07 09:25:58;;;;;;;4.27;3.73;;;1.00;99.90;;;;;;5104441;28;20232;-54
2022/01/07 09:28:42;;;;;;;4.17;3.87;;;1.00;99.90;;;;;;5103274;28;20192;-59
2022/01/07 09:31:27;;;;;;;4.20;3.03;;;1.00;99.90;;;;;;5102939;28;20196;-59
2022/01/07 09:34:13;;;;;;;6.57;2.50;;;1.00;99.90;;;;;;5104290;28;20219;-59
2022/01/07 09:36:57;;;;;;;3.63;2.63;;;0.90;99.90;;;;;;5102203;28;20280;-57
2022/01/07 09:39:42;;;;;;;2.53;2.40;;;0.80;99.90;;;;;;5104350;28;20238;-62
2022/01/07 09:42:27;;;;;;;3.50;2.63;;;0.90;99.90;;;;;;5104011;28;20249;-60
2022/01/07 09:45:12;;;;;;;3.73;3.13;;;1.10;99.90;;;;;;5102056;28;20196;-61
2022/01/07 09:47:57;;;;;;;3.50;2.90;;;1.10;99.90;;;;;;5104176;28;20588;-56
2022/01/07 09:50:41;;;;;;;2.23;2.07;;;1.10;99.90;;;;;;5101413;28;20288;-64
2022/01/07 09:53:26;;;;;;;2.33;2.23;;;1.00;99.90;;;;;;5099581;27;20196;-49
2022/01/07 09:56:12;;;;;;;4.77;3.13;;;1.00;99.90;;;;;;5102038;28;20245;-54
2022/01/07 09:58:58;;;;;;;4.40;2.97;;;1.00;99.90;;;;;;5101480;28;20204;-57
2022/01/07 10:01:57;;;;;;;2.87;2.63;;;0.90;99.90;;;;;;5102886;28;20181;-61
2022/01/07 10:04:42;;;;;;;4.47;2.63;;;1.10;99.90;;;;;;5103664;28;20196;-57
2022/01/07 10:07:27;;;;;;;2.57;2.47;;;1.10;99.90;;;;;;5111196;27;20245;-52
2022/01/07 10:10:14;;;;;;;2.43;2.03;;;1.10;99.90;;;;;;5114723;27;20198;-61
2022/01/07 10:13:04;;;;;;;3.30;2.10;;;1.30;99.90;;;;;;5109946;27;20195;-59
2022/01/07 10:15:49;;;;;;;5.63;2.67;;;1.30;99.90;;;;;;5106530;28;20224;-57
2022/01/07 10:18:37;;;;;;;2.10;1.90;;;1.40;99.90;;;;;;5108172;28;20192;-58
2022/01/07 10:21:22;;;;;;;3.03;1.83;;;1.40;99.90;;;;;;5112495;28;20253;-57
2022/01/07 10:24:06;;;;;;;2.57;2.37;;;1.50;99.90;;;;;;5110800;27;20273;-61
2022/01/07 10:27:14;;;;;;;4.00;2.73;;;1.40;99.90;;;;;;5111325;28;20204;-51
2022/01/07 10:29:58;;;;;;;3.67;2.73;;;1.50;99.90;;;;;;5127192;27;20187;-55
2022/01/07 10:32:43;;;;;;;3.23;2.97;;;1.50;99.90;;;;;;5114428;28;20219;-57
2022/01/07 10:35:28;;;;;;;1.60;1.50;;;1.50;99.90;;;;;;5111148;27;20281;-56
2022/01/07 10:38:21;;;;;;;5.33;3.03;;;1.40;99.90;;;;;;5112124;28;20294;-64
2022/01/07 10:41:05;;;;;;;3.27;2.90;;;1.50;99.90;;;;;;5111664;28;20199;-57
2022/01/07 10:43:52;;;;;;;4.57;2.47;;;1.40;99.90;;;;;;5109600;28;20301;-50
2022/01/07 10:46:37;;;;;;;2.00;1.60;;;1.50;99.90;;;;;;5109705;28;20200;-56
2022/01/07 10:49:31;;;;;;;2.57;2.37;;;1.50;99.90;;;;;;5109369;28;20218;-53
2022/01/07 10:52:23;;;;;;;3.47;2.57;;;1.60;99.90;;;;;;5108995;28;20183;-59
2022/01/07 10:55:12;;;;;;;2.43;2.17;;;1.50;99.90;;;;;;5109786;28;20235;-56
2022/01/07 10:57:56;;;;;;;5.17;3.73;;;1.40;99.90;;;;;;5113919;28;20293;-56
2022/01/07 11:00:41;;;;;;;2.63;2.27;;;1.50;99.90;;;;;;5109608;28;20270;-49
2022/01/07 11:03:33;;;;;;;2.47;2.07;;;1.60;99.90;;;;;;5113829;27;20203;-56
2022/01/07 11:06:19;;;;;;;1.73;1.50;;;1.60;99.90;;;;;;5116383;27;20230;-51
2022/01/07 11:09:09;;;;;;;2.77;2.23;;;1.50;99.90;;;;;;5120012;27;20223;-47
2022/01/07 11:12:02;;;;;;;3.00;2.37;;;1.60;99.90;;;;;;5113229;27;20200;-58
2022/01/07 11:14:46;;;;;;;2.17;1.73;;;1.50;99.90;;;;;;5117677;27;20284;-48
2022/01/07 11:17:31;;;;;;;2.83;2.23;;;1.60;99.90;;;;;;5127696;27;20271;-46
2022/01/07 11:20:23;;;;;;;2.40;2.20;;;1.60;99.90;;;;;;5126109;27;20278;-54
2022/01/07 11:23:08;;;;;;;1.83;1.73;;;1.40;99.90;;;;;;5126539;27;20199;-50
2022/01/07 11:25:59;;;;;;;1.30;1.30;;;1.10;99.90;;;;;;5126010;27;20281;-58
2022/01/07 11:29:03;;;;;;;3.77;2.63;;;1.10;99.90;;;;;;5126672;27;20210;-54
2022/01/07 11:31:51;;;;;;;2.13;2.00;;;1.10;99.90;;;;;;5127708;27;20279;-50
2022/01/07 11:34:35;;;;;;;6.93;2.17;;;1.10;99.90;;;;;;5126645;27;20341;-53
2022/01/07 11:37:39;;;;;;;2.53;2.33;;;1.20;99.90;;;;;;5124711;27;20203;-47
2022/01/07 11:40:46;;;;;;;3.93;3.27;;;1.30;99.90;;;;;;5127737;27;20187;-49
2022/01/07 11:43:37;;;;;;;3.80;1.97;;;0.60;99.90;;;;;;5126641;27;20343;-54
2022/01/07 11:46:30;;;;;;;2.63;1.93;;;0.40;99.90;;;;;;5124814;27;20207;-52
2022/01/07 11:49:35;;;;;;;2.73;1.70;;;0.50;99.90;;;;;;5127474;27;20188;-49
2022/01/07 11:52:31;;;;;;;2.17;1.67;;;0.70;99.90;;;;;;5127041;27;20284;-45
2022/01/07 11:55:30;;;;;;;2.97;2.70;;;0.80;99.90;;;;;;5124717;27;20219;-46
2022/01/07 11:58:15;;;;;;;3.43;2.97;;;0.60;99.90;;;;;;5127852;27;20325;-48
2022/01/07 12:01:03;;;;;;;7.53;3.50;;;0.60;99.90;;;;;;5127133;27;20321;-48
2022/01/07 12:03:49;;;;;;;3.73;2.60;;;0.40;99.90;;;;;;5124673;27;20287;-48
2022/01/07 12:06:36;;;;;;;3.83;2.50;;;0.30;99.90;;;;;;5127710;27;20195;-51
2022/01/07 12:09:28;;;;;;;4.37;2.33;;;0.50;99.90;;;;;;5126753;27;20187;-56
2022/01/07 12:12:15;;;;;;;4.73;2.50;;;0.50;99.90;;;;;;5124647;27;20236;-58
2022/01/07 12:15:02;;;;;;;11.93;4.37;;;0.50;99.90;;;;;;5126394;27;20227;-50
2022/01/07 12:17:46;;;;;;;2.80;2.63;;;0.50;99.90;;;;;;5125349;27;20222;-48
2022/01/07 12:20:50;;;;;;;7.53;3.70;;;0.40;99.90;;;;;;5124784;27;20289;-51
2022/01/07 12:23:36;;;;;;;2.93;2.73;;;0.30;99.90;;;;;;5127490;27;20199;-49
2022/01/07 12:26:24;;;;;;;4.70;3.80;;;0.40;99.90;;;;;;5125590;27;20246;-56
2022/01/07 12:29:20;;;;;;;3.07;2.77;;;0.40;99.90;;;;;;5124468;27;20203;-51
2022/01/07 12:32:06;;;;;;;6.40;3.63;;;0.50;99.90;;;;;;5126719;27;20191;-49
2022/01/07 12:34:50;;;;;;;3.23;2.93;;;0.50;99.90;;;;;;5124599;27;20280;-48
2022/01/07 12:37:35;;;;;;;3.33;2.23;;;0.50;99.90;;;;;;5124671;27;20199;-50
2022/01/07 12:40:20;;;;;;;2.67;2.47;;;0.50;99.90;;;;;;5127025;27;20233;-51
2022/01/07 12:43:04;;;;;;;3.53;2.53;;;0.60;99.90;;;;;;5123652;27;20252;-56
2022/01/07 12:46:01;;;;;;;3.97;3.47;;;0.60;99.90;;;;;;5126380;27;20195;-50
2022/01/07 12:48:46;;;;;;;2.90;2.70;;;0.60;99.90;;;;;;5126083;27;20203;-52
2022/01/07 12:51:34;;;;;;;4.20;2.63;;;0.50;99.90;;;;;;5123735;27;20284;-53
2022/01/07 12:54:18;;;;;;;6.47;3.33;;;0.60;99.90;;;;;;5126129;27;20235;-50
2022/01/07 12:57:03;;;;;;;4.60;2.93;;;0.20;99.90;;;;;;5125370;27;20191;-56
2022/01/07 13:00:00;;;;;;;5.97;3.20;;;0.10;99.90;;;;;;5123470;27;20199;-48
2022/01/07 13:35:38;;;;;;;2.27;2.07;;;0.00;99.90;;;;;;5080258;28;20197;-61
2022/01/07 13:38:12;;;;;;;2.10;1.90;;;0.00;99.90;;;;;;5064081;28;20191;-59
2022/01/07 13:40:38;;;;;;;1.60;1.50;;;0.00;99.90;;;;;;5065690;28;20185;-53
2022/01/07 13:43:15;;;;;;;2.53;2.33;;;0.00;99.90;;;;;;5062330;28;20194;-59
2022/01/07 13:45:42;;;;;;;6.60;2.97;;;-0.20;99.90;;;;;;5064637;28;20181;-60
2022/01/07 13:48:11;;;;;;;3.10;2.10;;;-0.20;99.90;;;;;;5063762;28;20174;-56
2022/01/07 13:50:40;;;;;;;5.70;3.87;;;0.00;99.90;;;;;;5066092;28;20182;-51
2022/01/07 13:53:16;;;;;;;6.03;1.97;;;-0.10;99.90;;;;;;5065119;28;20178;-58
2022/01/07 13:55:46;;;;;;;2.30;1.87;;;-0.10;99.90;;;;;;5063748;28;20224;-49
2022/01/07 13:58:17;;;;;;;1.93;1.83;;;-0.10;99.90;;;;;;5067031;28;20216;-49
2022/01/07 14:00:48;;;;;;;2.47;1.47;;;-0.10;99.90;;;;;;5064103;28;20182;-59
2022/01/07 14:03:15;;;;;;;3.20;2.23;;;-0.10;99.90;;;;;;5097144;28;20248;-61
2022/01/07 14:05:42;;;;;;;2.57;2.47;;;-0.20;99.90;;;;;;5045154;28;20248;-62
2022/01/07 14:08:11;;;;;;;2.67;1.97;;;-0.20;99.90;;;;;;5046717;28;20187;-57
2022/01/07 14:10:41;;;;;;;1.73;1.73;;;-0.10;99.90;;;;;;5048786;28;20174;-62
2022/01/07 14:13:13;;;;;;;1.07;0.97;;;0.10;99.90;;;;;;5060525;28;20213;-51
2022/01/07 14:15:57;;;;;;;2.93;2.30;;;0.10;99.90;;;;;;5064154;28;20270;-56
2022/01/07 14:18:24;;;;;;;1.83;1.33;;;0.00;99.90;;;;;;5060634;28;20205;-61
2022/01/07 14:21:00;;;;;;;2.90;2.37;;;0.00;99.90;;;;;;5064747;28;20194;-57
2022/01/07 14:23:37;;;;;;;2.43;2.10;;;0.00;99.90;;;;;;5062312;28;20216;-52
2022/01/07 14:26:04;;;;;;;1.97;1.87;;;-0.10;99.90;;;;;;5091708;28;20211;-62
2022/01/07 14:28:31;;;;;;;1.87;1.67;;;0.00;99.90;;;;;;5061562;28;20188;-61
2022/01/07 14:30:57;;;;;;;2.60;2.37;;;0.00;99.90;;;;;;5077211;28;20194;-58
2022/01/07 14:33:23;;;;;;;2.23;2.07;;;0.10;99.90;;;;;;5068022;28;20217;-62
2022/01/07 14:35:51;;;;;;;2.70;1.70;;;0.20;99.90;;;;;;5093739;28;21145;-59
2022/01/07 14:38:17;;;;;;;1.07;1.07;;;0.30;99.90;;;;;;5089297;28;20209;-57
2022/01/07 14:40:43;;;;;;;4.80;2.30;;;0.40;99.90;;;;;;5123635;27;20192;-54
2022/01/07 14:43:14;;;;;;;3.93;2.43;;;0.40;99.90;;;;;;5102670;27;20180;-60
2022/01/07 14:45:40;;;;;;;1.33;1.27;;;0.40;99.90;;;;;;5106994;27;20184;-59
2022/01/07 14:48:06;;;;;;;1.67;1.57;;;0.50;99.90;;;;;;5097212;27;20184;-52
2022/01/07 14:50:32;;;;;;;1.20;1.20;;;0.40;99.90;;;;;;5122209;27;20276;-53
2022/01/07 14:52:58;;;;;;;2.53;2.30;;;0.40;99.90;;;;;;5102213;27;20189;-49
2022/01/07 14:55:27;;;;;;;1.53;1.53;;;0.50;99.90;;;;;;5090188;28;20251;-56
2022/01/07 14:57:54;;;;;;;1.57;1.47;;;0.50;99.90;;;;;;5093028;27;20185;-61
2022/01/07 15:00:22;;;;;;;1.13;1.07;;;0.40;99.90;;;;;;5086673;27;20218;-53
2022/01/07 15:02:48;;;;;;;2.93;1.60;;;0.50;99.90;;;;;;5106037;27;20230;-62
2022/01/07 15:05:14;;;;;;;0.97;0.97;;;0.50;99.90;;;;;;5092819;27;20177;-48
2022/01/07 15:07:40;;;;;;;2.07;1.87;;;0.50;99.90;;;;;;5090508;27;20218;-47
2022/01/07 15:10:07;;;;;;;4.37;1.87;;;0.50;99.90;;;;;;5093988;27;20184;-58
2022/01/07 15:12:33;;;;;;;5.37;2.13;;;0.50;99.90;;;;;;5094909;27;20242;-48
2022/01/07 15:14:58;;;;;;;4.80;2.40;;;0.60;99.90;;;;;;5098978;27;20216;-56
2022/01/07 15:17:25;;;;;;;2.13;2.03;;;0.60;99.90;;;;;;5099160;27;20175;-50
2022/01/07 15:19:50;;;;;;;2.67;1.90;;;0.60;99.90;;;;;;5125217;27;20185;-57
2022/01/07 15:22:17;;;;;;;2.00;1.90;;;0.60;99.90;;;;;;5137137;27;20189;-54
2022/01/07 15:24:43;;;;;;;5.13;1.97;;;0.60;99.90;;;;;;5100218;27;20180;-57
2022/01/07 15:27:09;;;;;;;2.53;2.00;;;0.60;99.90;;;;;;5100890;27;20634;-58
2022/01/07 15:29:35;;;;;;;5.13;2.27;;;0.50;99.90;;;;;;5095289;27;20184;-58
2022/01/07 15:32:02;;;;;;;3.60;2.03;;;0.50;99.90;;;;;;5096197;27;20180;-56
2022/01/07 15:34:27;;;;;;;2.43;1.70;;;0.50;99.90;;;;;;5097704;27;20236;-61
2022/01/07 15:36:54;;;;;;;2.77;2.43;;;0.50;99.90;;;;;;5094304;27;20257;-56
2022/01/07 15:39:21;;;;;;;3.27;2.33;;;0.60;99.90;;;;;;5097187;27;20192;-54
2022/01/07 15:41:48;;;;;;;3.00;0.87;;;0.50;99.90;;;;;;5095782;27;20212;-56